createdAt,value
2022-07-30T00:02:25.937Z,101096.28
2022-07-30T00:04:55.662Z,101100.59
2022-07-30T00:07:25.399Z,101031.06
2022-07-30T00:09:55.090Z,101086.78
2022-07-30T00:12:24.756Z,101095.34
2022-07-30T00:14:57.026Z,101090.13
2022-07-30T00:17:26.713Z,101076.38
2022-07-30T00:19:57.933Z,101091.03
2022-07-30T00:22:28.938Z,101086.72
2022-07-30T00:24:58.686Z,101086.66
2022-07-30T00:27:28.386Z,101053.16
2022-07-30T00:30:00.710Z,101080.59
2022-07-30T00:32:30.491Z,101081.47
2022-07-30T00:35:00.156Z,101060.84
2022-07-30T00:37:29.798Z,100998.22
2022-07-30T00:40:00.031Z,101061.69
2022-07-30T00:42:40.141Z,101068.59
2022-07-30T00:45:14.511Z,101066.00
2022-07-30T00:47:44.853Z,101070.31
2022-07-30T00:50:16.832Z,101061.69
2022-07-30T00:52:47.445Z,101063.34
2022-07-30T00:55:18.369Z,101060.81
2022-07-30T00:57:48.430Z,101036.84
2022-07-30T01:00:21.410Z,101049.63
2022-07-30T01:02:51.171Z,101045.38
2022-07-30T01:05:20.974Z,101046.19
2022-07-30T01:07:51.648Z,101046.16
2022-07-30T01:10:21.705Z,101055.66
2022-07-30T01:12:52.874Z,101054.06
2022-07-30T01:15:25.562Z,101024.03
2022-07-30T01:18:00.470Z,101049.63
2022-07-30T01:20:32.191Z,101042.72
2022-07-30T01:23:11.442Z,101046.19
2022-07-30T01:25:58.355Z,101038.63
2022-07-30T01:28:32.873Z,101046.34
2022-07-30T01:31:03.994Z,101006.03
2022-07-30T01:33:36.319Z,101040.28
2022-07-30T01:36:07.494Z,101037.75
2022-07-30T01:38:38.177Z,101035.22
2022-07-30T01:41:12.585Z,101030.06
2022-07-30T01:43:44.253Z,101018.09
2022-07-30T01:46:16.620Z,101033.56
2022-07-30T01:48:49.655Z,100995.78
2022-07-30T01:51:21.949Z,100989.78
2022-07-30T01:53:56.096Z,101024.09
2022-07-30T01:56:29.078Z,101025.81
2022-07-30T01:59:07.656Z,101037.75
2022-07-30T02:01:37.844Z,101037.72
2022-07-30T02:04:07.825Z,101039.50
2022-07-30T02:06:43.798Z,101021.50
2022-07-30T02:09:22.404Z,101037.78
2022-07-30T02:12:10.249Z,100999.13
2022-07-30T02:14:44.286Z,101030.81
2022-07-30T02:17:19.455Z,101003.31
2022-07-30T02:19:54.098Z,101003.38
2022-07-30T02:22:25.862Z,101023.97
2022-07-30T02:24:57.869Z,101030.81
2022-07-30T02:27:34.674Z,101036.78
2022-07-30T02:30:09.415Z,101025.69
2022-07-30T02:32:43.731Z,101031.63
2022-07-30T02:35:22.143Z,101015.44
2022-07-30T02:37:55.334Z,101034.38
2022-07-30T02:40:27.889Z,101037.81
2022-07-30T02:43:01.920Z,101038.69
2022-07-30T02:45:33.470Z,101043.84
2022-07-30T02:48:06.700Z,101049.84
2022-07-30T02:50:37.580Z,101036.16
2022-07-30T02:53:12.315Z,101051.53
2022-07-30T02:55:44.760Z,101041.22
2022-07-30T02:58:20.102Z,101046.34
2022-07-30T03:00:52.115Z,101041.22
2022-07-30T03:03:29.024Z,101061.06
2022-07-30T03:06:00.882Z,101049.00
2022-07-30T03:08:31.828Z,101045.59
2022-07-30T03:11:03.370Z,101064.50
2022-07-30T03:13:35.998Z,101007.91
2022-07-30T03:16:10.431Z,101061.06
2022-07-30T03:18:42.400Z,101059.44
2022-07-30T03:21:14.433Z,101038.88
2022-07-30T03:23:47.031Z,101052.69
2022-07-30T03:26:17.781Z,101071.50
2022-07-30T03:28:51.983Z,101078.41
2022-07-30T03:31:21.837Z,101045.78
2022-07-30T03:33:52.578Z,101082.66
2022-07-30T03:36:23.398Z,101068.97
2022-07-30T03:38:54.006Z,101067.34
2022-07-30T03:41:25.308Z,101093.13
2022-07-30T03:44:00.532Z,101084.56
2022-07-30T03:46:30.572Z,101099.34
2022-07-30T03:49:01.677Z,101104.53
2022-07-30T03:51:32.937Z,101084.81
2022-07-30T03:54:03.544Z,101071.09
2022-07-30T03:56:42.920Z,101048.78
2022-07-30T03:59:24.657Z,101064.19
2022-07-30T04:01:54.407Z,101100.34
2022-07-30T04:04:39.030Z,101084.00
2022-07-30T04:07:08.866Z,101089.13
2022-07-30T04:09:38.957Z,101108.00
2022-07-30T04:12:28.164Z,101100.25
2022-07-30T04:15:00.486Z,101077.00
2022-07-30T04:17:35.911Z,101107.88
2022-07-30T04:20:17.743Z,101063.22
2022-07-30T04:22:49.362Z,101107.88
2022-07-30T04:25:24.231Z,101108.78
2022-07-30T04:28:03.436Z,101121.69
2022-07-30T04:30:37.013Z,101115.78
2022-07-30T04:33:08.387Z,101078.84
2022-07-30T04:36:00.828Z,101134.72
2022-07-30T04:38:35.380Z,101125.28
2022-07-30T04:41:05.474Z,101138.19
2022-07-30T04:43:55.812Z,101122.75
2022-07-30T04:46:28.250Z,101136.50
2022-07-30T04:48:58.029Z,101140.78
2022-07-30T04:51:37.072Z,101125.34
2022-07-30T04:54:15.083Z,101141.69
2022-07-30T04:56:50.571Z,101128.88
2022-07-30T04:59:27.822Z,101149.50
2022-07-30T05:02:03.533Z,101111.75
2022-07-30T05:04:37.728Z,101134.91
2022-07-30T05:07:09.988Z,101156.38
2022-07-30T05:09:42.895Z,101115.06
2022-07-30T05:12:14.545Z,101136.50
2022-07-30T05:14:48.186Z,101153.56
2022-07-30T05:17:23.490Z,101151.78
2022-07-30T05:19:55.367Z,101142.28
2022-07-30T05:22:30.143Z,101150.84
2022-07-30T05:25:01.112Z,101154.28
2022-07-30T05:27:31.950Z,101120.81
2022-07-30T05:30:03.038Z,101105.34
2022-07-30T05:32:42.086Z,101149.06
2022-07-30T05:35:12.841Z,101149.03
2022-07-30T05:37:42.846Z,101126.66
2022-07-30T05:40:15.187Z,101088.84
2022-07-30T05:43:04.421Z,101148.91
2022-07-30T05:45:36.384Z,101132.50
2022-07-30T05:48:10.339Z,101137.72
2022-07-30T05:50:41.401Z,101106.81
2022-07-30T05:53:12.252Z,101160.00
2022-07-30T05:56:02.577Z,101142.81
2022-07-30T05:59:01.276Z,101148.78
2022-07-30T06:02:03.476Z,101161.69
2022-07-30T06:05:03.496Z,101143.56
2022-07-30T06:07:34.926Z,101143.50
2022-07-30T06:10:06.616Z,101122.91
2022-07-30T06:12:37.404Z,101158.88
2022-07-30T06:15:11.098Z,101147.72
2022-07-30T06:17:57.078Z,101144.31
2022-07-30T06:20:46.768Z,101153.91
2022-07-30T06:23:27.276Z,101130.66
2022-07-30T06:26:22.505Z,101155.50
2022-07-30T06:28:53.499Z,101159.75
2022-07-30T06:31:30.799Z,101162.22
2022-07-30T06:34:01.677Z,101132.91
2022-07-30T06:36:40.429Z,101113.06
2022-07-30T06:39:56.592Z,101160.28
2022-07-30T06:42:41.426Z,101148.97
2022-07-30T06:45:38.173Z,101161.69
2022-07-30T06:48:22.276Z,101155.72
2022-07-30T06:50:53.024Z,101172.81
2022-07-30T06:53:26.545Z,101169.28
2022-07-30T06:56:16.577Z,101162.34
2022-07-30T06:58:58.102Z,101134.06
2022-07-30T07:01:47.928Z,101168.47
2022-07-30T07:04:19.041Z,101124.66
2022-07-30T07:06:49.832Z,101162.34
2022-07-30T07:09:34.035Z,101164.03
2022-07-30T07:12:29.530Z,101157.88
2022-07-30T07:15:00.243Z,101154.34
2022-07-30T07:17:31.974Z,101136.44
2022-07-30T07:20:22.878Z,101139.44
2022-07-30T07:22:59.273Z,101162.63
2022-07-30T07:25:32.575Z,101154.06
2022-07-30T07:28:11.893Z,101154.84
2022-07-30T07:30:44.844Z,101143.81
2022-07-30T07:33:16.450Z,101134.56
2022-07-30T07:35:50.493Z,101155.06
2022-07-30T07:38:38.014Z,101158.59
2022-07-30T07:41:11.415Z,101158.28
2022-07-30T07:43:42.813Z,101149.16
2022-07-30T07:46:33.879Z,101151.13
2022-07-30T07:49:07.286Z,101136.03
2022-07-30T07:51:47.152Z,101157.59
2022-07-30T07:54:22.800Z,101139.75
2022-07-30T07:56:59.156Z,101141.69
2022-07-30T07:59:40.862Z,101153.97
2022-07-30T08:02:27.835Z,101126.47
2022-07-30T08:05:02.658Z,101145.94
2022-07-30T08:08:10.752Z,101136.59
2022-07-30T08:11:15.590Z,101164.84
2022-07-30T08:14:14.502Z,101138.78
2022-07-30T08:17:03.023Z,101164.41
2022-07-30T08:19:54.580Z,101167.19
2022-07-30T08:22:26.339Z,100954.13
2022-07-30T08:24:57.578Z,101153.88
2022-07-30T08:27:27.283Z,101135.06
2022-07-30T08:29:59.598Z,101147.25
2022-07-30T08:32:29.361Z,101150.84
2022-07-30T08:35:00.113Z,101158.88
2022-07-30T08:37:30.084Z,101146.38
2022-07-30T08:39:59.958Z,101128.50
2022-07-30T08:42:31.109Z,101153.94
2022-07-30T08:45:04.892Z,101120.44
2022-07-30T08:47:37.413Z,101139.78
2022-07-30T08:50:16.647Z,101130.22
2022-07-30T08:53:07.129Z,101135.09
2022-07-30T08:55:37.063Z,101148.13
2022-07-30T08:58:09.303Z,101152.13
2022-07-30T09:00:41.739Z,101158.41
2022-07-30T09:03:11.492Z,101163.16
2022-07-30T09:05:41.849Z,101156.97
2022-07-30T09:08:12.663Z,101167.19
2022-07-30T09:10:53.220Z,101144.25
2022-07-30T09:13:29.912Z,101154.34
2022-07-30T09:16:05.626Z,101166.41
2022-07-30T09:18:44.561Z,101162.56
2022-07-30T09:21:20.952Z,101116.94
2022-07-30T09:23:59.411Z,101146.88
2022-07-30T09:26:59.226Z,101143.59
2022-07-30T09:29:59.085Z,101161.88
2022-07-30T09:32:56.328Z,101145.81
2022-07-30T09:35:46.859Z,101143.75
2022-07-30T09:38:46.238Z,101156.34
2022-07-30T09:41:39.998Z,101158.53
2022-07-30T09:44:27.052Z,101163.59
2022-07-30T09:47:03.088Z,101161.16
2022-07-30T09:49:43.570Z,101119.78
2022-07-30T09:52:30.434Z,101150.34
2022-07-30T09:55:01.432Z,101161.63
2022-07-30T09:57:34.997Z,101181.94
2022-07-30T10:00:24.215Z,101166.94
2022-07-30T10:03:33.076Z,101172.34
2022-07-30T10:06:37.843Z,101177.13
2022-07-30T10:09:30.476Z,101174.00
2022-07-30T10:12:02.660Z,101191.66
2022-07-30T10:14:42.633Z,101155.97
2022-07-30T10:17:15.887Z,101165.78
2022-07-30T10:20:10.436Z,101179.31
2022-07-30T10:23:07.989Z,101169.13
2022-07-30T10:25:49.309Z,101174.81
2022-07-30T10:29:00.252Z,101171.50
2022-07-30T10:31:49.390Z,101166.28
2022-07-30T10:34:26.081Z,101159.44
2022-07-30T10:37:03.404Z,101165.44
2022-07-30T10:39:40.736Z,101173.09
2022-07-30T10:42:23.099Z,101178.00
2022-07-30T10:45:17.554Z,101168.84
2022-07-30T10:47:49.551Z,101159.94
2022-07-30T10:50:22.698Z,101157.25
2022-07-30T10:52:54.321Z,101167.03
2022-07-30T10:55:36.836Z,101167.78
2022-07-30T10:58:10.339Z,101174.72
2022-07-30T11:01:03.137Z,101165.34
2022-07-30T11:03:41.432Z,101172.38
2022-07-30T11:06:38.705Z,101164.72
2022-07-30T11:09:40.784Z,101170.09
2022-07-30T11:12:15.701Z,101149.88
2022-07-30T11:15:07.495Z,101153.44
2022-07-30T11:18:13.033Z,101136.31
2022-07-30T11:20:48.613Z,101155.53
2022-07-30T11:23:40.812Z,101164.47
2022-07-30T11:26:14.490Z,101139.28
2022-07-30T11:28:49.719Z,101161.78
2022-07-30T11:31:56.980Z,101156.19
2022-07-30T11:34:30.592Z,101155.13
2022-07-30T11:37:19.286Z,101135.47
2022-07-30T11:40:14.762Z,101144.53
2022-07-30T11:42:45.684Z,101115.41
2022-07-30T11:45:35.199Z,101156.53
2022-07-30T11:48:11.872Z,101147.13
2022-07-30T11:50:42.027Z,101143.38
2022-07-30T11:53:16.511Z,101135.44
2022-07-30T11:55:48.587Z,101116.88
2022-07-30T11:58:28.081Z,101146.22
2022-07-30T12:01:02.033Z,101140.56
2022-07-30T12:03:34.593Z,101147.59
2022-07-30T12:06:07.701Z,101146.94
2022-07-30T12:08:44.653Z,101131.47
2022-07-30T12:11:16.602Z,101130.91
2022-07-30T12:13:57.395Z,101120.28
2022-07-30T12:16:30.902Z,101154.75
2022-07-30T12:19:05.323Z,101149.41
2022-07-30T12:21:35.996Z,101151.59
2022-07-30T12:24:07.695Z,101140.00
2022-07-30T12:26:37.717Z,101138.41
2022-07-30T12:29:10.187Z,101126.59
2022-07-30T12:31:45.265Z,101139.50
2022-07-30T12:34:25.937Z,101144.91
2022-07-30T12:36:57.766Z,101148.72
2022-07-30T12:39:29.352Z,101149.91
2022-07-30T12:41:59.180Z,101143.84
2022-07-30T12:44:40.890Z,101138.28
2022-07-30T12:47:25.850Z,101144.91
2022-07-30T12:49:56.904Z,101152.50
2022-07-30T12:52:30.781Z,101135.00
2022-07-30T12:55:03.089Z,101121.00
2022-07-30T12:57:58.013Z,101134.72
2022-07-30T13:00:30.488Z,101121.72
2022-07-30T13:03:02.845Z,101081.94
2022-07-30T13:05:50.042Z,101133.91
2022-07-30T13:08:20.305Z,101129.75
2022-07-30T13:11:00.337Z,101107.41
2022-07-30T13:13:31.062Z,101107.69
2022-07-30T13:16:03.402Z,101107.56
2022-07-30T13:18:37.998Z,101123.72
2022-07-30T13:21:09.964Z,101129.31
2022-07-30T13:23:40.800Z,101130.34
2022-07-30T13:26:13.673Z,101126.75
2022-07-30T13:28:43.396Z,101121.69
2022-07-30T13:31:13.072Z,101118.78
2022-07-30T13:33:45.414Z,101126.84
2022-07-30T13:36:15.155Z,101109.97
2022-07-30T13:38:45.428Z,101127.34
2022-07-30T13:41:21.943Z,101133.19
2022-07-30T13:43:51.715Z,101133.09
2022-07-30T13:46:22.441Z,101119.56
2022-07-30T13:48:55.055Z,101126.13
2022-07-30T13:51:25.239Z,101116.97
2022-07-30T13:53:55.152Z,101107.72
2022-07-30T13:56:24.966Z,101116.94
2022-07-30T13:58:56.296Z,101091.03
2022-07-30T14:01:26.284Z,101116.22
2022-07-30T14:03:58.708Z,101106.47
2022-07-30T14:06:28.487Z,101100.75
2022-07-30T14:08:58.550Z,101110.34
2022-07-30T14:11:28.390Z,101117.84
2022-07-30T14:13:58.114Z,101104.88
2022-07-30T14:16:45.444Z,101105.56
2022-07-30T14:19:22.989Z,101097.00
2022-07-30T14:21:55.287Z,101108.16
2022-07-30T14:24:25.597Z,101087.50
2022-07-30T14:26:58.184Z,101088.44
2022-07-30T14:29:28.863Z,101103.81
2022-07-30T14:31:58.800Z,101103.28
2022-07-30T14:34:31.218Z,101100.50
2022-07-30T14:37:01.891Z,101090.69
2022-07-30T14:39:31.826Z,101090.28
2022-07-30T14:42:01.593Z,101094.56
2022-07-30T14:44:32.901Z,101085.44
2022-07-30T14:47:03.167Z,101093.56
2022-07-30T14:49:36.104Z,101081.22
2022-07-30T14:52:06.178Z,101079.31
2022-07-30T14:54:35.970Z,101095.38
2022-07-30T14:57:08.716Z,101074.72
2022-07-30T14:59:39.301Z,101102.78
2022-07-30T15:02:10.634Z,101090.19
2022-07-30T15:04:43.363Z,101062.28
2022-07-30T15:07:13.072Z,101095.63
2022-07-30T15:09:42.928Z,101100.19
2022-07-30T15:12:13.169Z,101081.88
2022-07-30T15:14:49.972Z,101090.81
2022-07-30T15:17:22.246Z,101077.28
2022-07-30T15:19:54.602Z,101095.78
2022-07-30T15:22:24.682Z,101078.25
2022-07-30T15:24:54.528Z,101094.34
2022-07-30T15:27:33.240Z,101096.34
2022-07-30T15:30:04.940Z,101093.09
2022-07-30T15:32:34.790Z,101080.69
2022-07-30T15:35:13.181Z,101081.16
2022-07-30T15:37:43.949Z,101088.81
2022-07-30T15:40:14.284Z,101091.22
2022-07-30T15:42:44.620Z,101070.25
2022-07-30T15:45:17.775Z,101081.72
2022-07-30T15:47:48.525Z,101075.50
2022-07-30T15:50:21.028Z,101074.63
2022-07-30T15:52:50.762Z,101074.34
2022-07-30T15:55:20.851Z,101087.97
2022-07-30T15:57:51.078Z,101083.16
2022-07-30T16:00:20.929Z,101053.91
2022-07-30T16:02:50.717Z,101062.66
2022-07-30T16:05:23.075Z,101075.69
2022-07-30T16:07:52.965Z,101082.78
2022-07-30T16:10:22.967Z,101074.78
2022-07-30T16:12:52.750Z,101075.63
2022-07-30T16:15:22.490Z,101070.63
2022-07-30T16:17:52.242Z,101083.63
2022-07-30T16:20:24.721Z,101076.22
2022-07-30T16:22:54.667Z,101076.25
2022-07-30T16:25:24.518Z,101083.81
2022-07-30T16:27:54.281Z,101073.00
2022-07-30T16:30:27.554Z,101079.34
2022-07-30T16:32:57.550Z,101083.34
2022-07-30T16:35:34.436Z,101100.31
2022-07-30T16:38:20.066Z,101095.13
2022-07-30T16:40:52.324Z,101101.03
2022-07-30T16:43:25.378Z,101099.81
2022-07-30T16:45:56.732Z,101094.34
2022-07-30T16:48:27.244Z,101095.72
2022-07-30T16:51:00.582Z,101073.13
2022-07-30T16:53:32.780Z,101079.50
2022-07-30T16:56:05.908Z,101100.78
2022-07-30T16:58:36.763Z,101100.81
2022-07-30T17:01:08.643Z,101093.25
2022-07-30T17:03:39.321Z,101092.25
2022-07-30T17:06:13.495Z,101094.94
2022-07-30T17:08:48.681Z,101099.31
2022-07-30T17:11:47.390Z,101080.88
2022-07-30T17:14:12.550Z,101100.78
2022-07-30T17:16:44.776Z,101102.28
2022-07-30T17:19:15.474Z,101103.09
2022-07-30T17:21:49.295Z,101104.88
2022-07-30T17:24:22.417Z,101091.22
2022-07-30T17:26:54.613Z,101055.63
2022-07-30T17:29:25.369Z,101085.63
2022-07-30T17:31:56.125Z,101103.03
2022-07-30T17:34:27.273Z,101105.44
2022-07-30T17:37:01.139Z,101113.06
2022-07-30T17:40:18.681Z,101109.13
2022-07-30T17:42:25.759Z,101112.66
2022-07-30T17:44:59.781Z,101110.28
2022-07-30T17:47:30.273Z,101104.06
2022-07-30T17:50:00.992Z,101098.88
2022-07-30T17:52:34.470Z,101102.25
2022-07-30T17:55:05.538Z,101064.88
2022-07-30T17:57:36.202Z,101088.84
2022-07-30T18:00:15.474Z,101099.94
2022-07-30T18:02:46.961Z,101058.25
2022-07-30T18:05:17.612Z,101102.13
2022-07-30T18:07:57.363Z,101119.91
2022-07-30T18:10:28.882Z,101120.25
2022-07-30T18:13:22.563Z,101095.97
2022-07-30T18:15:52.802Z,101130.81
2022-07-30T18:18:24.566Z,101128.13
2022-07-30T18:20:54.481Z,101129.66
2022-07-30T18:23:28.018Z,101070.63
2022-07-30T18:26:05.966Z,101126.34
2022-07-30T18:28:36.847Z,101134.81
2022-07-30T18:31:08.977Z,101143.75
2022-07-30T18:33:38.772Z,101132.31
2022-07-30T18:36:11.130Z,101141.91
2022-07-30T18:38:43.360Z,101150.50
2022-07-30T18:41:13.205Z,101158.53
2022-07-30T18:43:47.860Z,101137.09
2022-07-30T18:46:18.507Z,101160.41
2022-07-30T18:48:51.430Z,101114.94
2022-07-30T18:51:25.121Z,101152.78
2022-07-30T18:54:01.954Z,101131.84
2022-07-30T18:56:37.375Z,101161.75
2022-07-30T18:59:08.095Z,101153.50
2022-07-30T19:01:39.250Z,101139.88
2022-07-30T19:04:10.445Z,101181.81
2022-07-30T19:06:40.173Z,101157.50
2022-07-30T19:09:17.178Z,101176.09
2022-07-30T19:11:49.691Z,101148.03
2022-07-30T19:14:24.383Z,101155.59
2022-07-30T19:16:54.115Z,101130.75
2022-07-30T19:19:32.723Z,101160.56
2022-07-30T19:22:03.722Z,101184.66
2022-07-30T19:24:36.462Z,101161.63
2022-07-30T19:27:11.059Z,101181.47
2022-07-30T19:29:45.416Z,101173.78
2022-07-30T19:32:16.137Z,101158.44
2022-07-30T19:34:49.400Z,101177.28
2022-07-30T19:37:20.017Z,101198.34
2022-07-30T19:40:05.274Z,101203.09
2022-07-30T19:42:36.740Z,101128.84
2022-07-30T19:48:03.071Z,101211.84
2022-07-30T19:50:35.712Z,101224.09
2022-07-30T19:53:06.919Z,101210.03
2022-07-30T19:55:39.652Z,101241.56
2022-07-30T19:58:16.461Z,101243.94
2022-07-30T20:00:49.421Z,101245.47
2022-07-30T20:03:26.007Z,101252.59
2022-07-30T20:06:00.552Z,101257.47
2022-07-30T20:08:30.340Z,101259.25
2022-07-30T20:11:02.617Z,101266.28
2022-07-30T20:13:44.020Z,101256.88
2022-07-30T20:16:19.787Z,101263.78
2022-07-30T20:18:49.692Z,101268.09
2022-07-30T20:21:21.181Z,101235.75
2022-07-30T20:24:12.295Z,101244.84
2022-07-30T20:26:47.849Z,101277.81
2022-07-30T20:29:19.526Z,101248.88
2022-07-30T20:31:50.718Z,101262.97
2022-07-30T20:34:25.912Z,101262.13
2022-07-30T20:36:57.509Z,101265.78
2022-07-30T20:39:27.498Z,101278.44
2022-07-30T20:42:12.073Z,101256.88
2022-07-30T20:44:44.492Z,101246.44
2022-07-30T20:47:34.791Z,101273.91
2022-07-30T20:50:10.560Z,101275.56
2022-07-30T20:52:40.968Z,101281.59
2022-07-30T20:55:22.056Z,101284.13
2022-07-30T20:58:00.403Z,101284.97
2022-07-30T21:00:49.616Z,101264.47
2022-07-30T21:03:21.562Z,101276.44
2022-07-30T21:05:52.506Z,101298.84
2022-07-30T21:08:25.593Z,101248.38
2022-07-30T21:10:57.063Z,101286.13
2022-07-30T21:13:30.381Z,101299.81
2022-07-30T21:16:03.583Z,101306.03
2022-07-30T21:18:34.807Z,101294.91
2022-07-30T21:21:05.504Z,101304.47
2022-07-30T21:23:38.278Z,101308.09
2022-07-30T21:26:13.456Z,101308.97
2022-07-30T21:28:46.163Z,101309.94
2022-07-30T21:31:15.873Z,101264.59
2022-07-30T21:33:46.562Z,101265.50
2022-07-30T21:36:16.529Z,101287.81
2022-07-30T21:38:55.715Z,101287.63
2022-07-30T21:41:37.574Z,101285.13
2022-07-30T21:44:14.091Z,101290.28
2022-07-30T21:46:47.850Z,101286.94
2022-07-30T21:49:18.367Z,101285.25
2022-07-30T21:51:48.974Z,101295.59
2022-07-30T21:54:28.714Z,101293.91
2022-07-30T21:56:58.729Z,101311.25
2022-07-30T21:59:31.460Z,101300.91
2022-07-30T22:02:02.839Z,101300.94
2022-07-30T22:04:33.803Z,101298.59
2022-07-30T22:07:03.544Z,101311.38
2022-07-30T22:09:34.735Z,101307.75
2022-07-30T22:12:09.245Z,101319.03
2022-07-30T22:14:44.215Z,101295.16
2022-07-30T22:17:23.417Z,101310.56
2022-07-30T22:19:54.760Z,101319.09
2022-07-30T22:22:26.531Z,101320.75
2022-07-30T22:25:00.047Z,101315.66
2022-07-30T22:27:40.360Z,101300.16
2022-07-30T22:30:26.370Z,101293.31
2022-07-30T22:32:56.588Z,101312.28
2022-07-30T22:38:16.294Z,101271.16
2022-07-30T22:40:46.173Z,101285.81
2022-07-30T22:43:16.675Z,101272.00
2022-07-30T22:45:50.132Z,101286.66
2022-07-30T22:48:25.298Z,101297.88
2022-07-30T22:50:58.490Z,101303.94
2022-07-30T22:54:03.680Z,101285.72
2022-07-30T22:56:25.390Z,101294.47
2022-07-30T22:58:55.275Z,101260.22
2022-07-30T23:01:28.683Z,101273.25
2022-07-30T23:04:01.380Z,101282.28
2022-07-30T23:06:33.264Z,101193.03
2022-07-30T23:09:05.007Z,101261.78
2022-07-30T23:11:37.385Z,101271.41
2022-07-30T23:12:16.491Z,101199.31
2022-07-30T23:12:33.211Z,101273.66
2022-07-30T23:14:09.085Z,101277.53
2022-07-30T23:16:42.906Z,101270.69
2022-07-30T23:19:21.745Z,101282.78
2022-07-30T23:21:53.057Z,101271.50
2022-07-30T23:24:22.781Z,101279.34
2022-07-30T23:26:53.585Z,101193.66
2022-07-30T23:29:24.233Z,101269.97
2022-07-30T23:31:57.614Z,101228.84
2022-07-30T23:34:27.377Z,101220.34
2022-07-30T23:36:58.222Z,101254.69
2022-07-30T23:39:29.158Z,101251.28
2022-07-30T23:42:00.004Z,101257.31
2022-07-30T23:44:34.279Z,101221.25
2022-07-30T23:47:11.216Z,101254.81
2022-07-30T23:49:44.286Z,101240.19
2022-07-30T23:52:15.140Z,101260.06
2022-07-30T23:54:45.906Z,101249.78
2022-07-30T23:57:16.714Z,101257.50
2022-07-30T23:59:48.423Z,101259.31
